createdAt,value
2023-02-11T00:01:35.141Z,25.48
2023-02-11T00:04:05.265Z,25.50
2023-02-11T00:06:35.135Z,25.55
2023-02-11T00:09:04.111Z,25.61
2023-02-11T00:11:32.526Z,25.66
2023-02-11T00:14:03.690Z,25.70
2023-02-11T00:16:33.290Z,25.75
2023-02-11T00:19:02.813Z,25.81
2023-02-11T00:21:31.434Z,25.85
2023-02-11T00:24:01.064Z,25.90
2023-02-11T00:26:35.697Z,25.94
2023-02-11T00:29:06.178Z,25.98
2023-02-11T00:31:35.116Z,26.02
2023-02-11T00:34:03.972Z,26.04
2023-02-11T00:36:32.568Z,26.09
2023-02-11T00:39:01.724Z,26.12
2023-02-11T00:41:30.621Z,26.14
2023-02-11T00:43:58.926Z,26.15
2023-02-11T00:46:27.443Z,26.18
2023-02-11T00:48:58.818Z,26.21
2023-02-11T00:51:29.411Z,26.26
2023-02-11T00:53:57.914Z,26.29
2023-02-11T00:56:26.269Z,26.33
2023-02-11T00:58:54.971Z,26.36
2023-02-11T01:01:23.324Z,26.39
2023-02-11T01:03:51.812Z,26.41
2023-02-11T01:06:20.458Z,26.43
2023-02-11T01:08:48.743Z,26.47
2023-02-11T01:11:20.199Z,26.52
2023-02-11T01:13:50.197Z,26.55
2023-02-11T01:16:19.861Z,26.61
2023-02-11T01:18:48.526Z,26.62
2023-02-11T01:21:17.123Z,26.65
2023-02-11T01:23:45.549Z,26.67
2023-02-11T01:26:14.149Z,26.71
2023-02-11T01:28:42.519Z,26.74
2023-02-11T01:31:10.977Z,26.78
2023-02-11T01:33:39.316Z,26.86
2023-02-11T01:36:08.814Z,26.93
2023-02-11T01:38:37.786Z,27.00
2023-02-11T01:41:10.327Z,27.07
2023-02-11T01:43:41.703Z,27.15
2023-02-11T01:46:21.800Z,27.22
2023-02-11T01:48:56.730Z,27.28
2023-02-11T01:51:49.282Z,27.35
2023-02-11T01:54:41.039Z,27.40
2023-02-11T01:57:23.876Z,27.49
2023-02-11T02:00:16.394Z,27.56
2023-02-11T02:02:57.229Z,27.64
2023-02-11T02:05:41.439Z,27.69
2023-02-11T02:08:36.884Z,27.75
2023-02-11T02:11:05.978Z,27.82
2023-02-11T02:13:36.186Z,27.87
2023-02-11T02:16:15.952Z,27.91
2023-02-11T02:18:52.948Z,27.95
2023-02-11T02:21:37.632Z,28.01
2023-02-11T02:24:27.274Z,28.05
2023-02-11T02:27:11.302Z,28.10
2023-02-11T02:29:57.713Z,28.13
2023-02-11T02:32:33.762Z,28.17
2023-02-11T02:35:07.961Z,28.19
2023-02-11T02:37:57.874Z,28.24
2023-02-11T02:40:33.760Z,28.25
2023-02-11T02:43:04.174Z,28.27
2023-02-11T02:45:32.487Z,28.33
2023-02-11T02:48:00.781Z,28.37
2023-02-11T02:50:34.593Z,28.44
2023-02-11T02:53:21.349Z,28.52
2023-02-11T02:56:13.187Z,28.60
2023-02-11T02:58:59.794Z,28.69
2023-02-11T03:01:36.546Z,28.75
2023-02-11T03:04:52.775Z,28.81
2023-02-11T03:08:09.302Z,28.86
2023-02-11T03:10:45.081Z,28.88
2023-02-11T03:13:18.036Z,28.90
2023-02-11T03:15:52.166Z,28.93
2023-02-11T03:18:25.908Z,28.98
2023-02-11T03:20:57.560Z,29.01
2023-02-11T03:23:30.901Z,29.04
2023-02-11T03:26:19.644Z,29.08
2023-02-11T03:29:06.561Z,29.08
2023-02-11T03:32:21.468Z,29.07
2023-02-11T03:34:56.855Z,29.06
2023-02-11T03:37:40.769Z,29.07
2023-02-11T03:40:16.647Z,29.10
2023-02-11T03:42:51.479Z,29.15
2023-02-11T03:45:23.627Z,29.23
2023-02-11T03:48:24.381Z,29.31
2023-02-11T03:50:55.150Z,29.38
2023-02-11T03:53:24.176Z,29.44
2023-02-11T03:55:55.972Z,29.50
2023-02-11T03:58:24.389Z,29.58
2023-02-11T04:00:52.920Z,29.62
2023-02-11T04:03:21.311Z,29.71
2023-02-11T04:05:49.823Z,29.78
2023-02-11T04:08:18.369Z,29.85
2023-02-11T04:10:46.691Z,29.93
2023-02-11T04:13:15.270Z,29.99
2023-02-11T04:15:43.588Z,30.04
2023-02-11T04:18:11.917Z,30.10
2023-02-11T04:20:40.237Z,30.19
2023-02-11T04:23:08.585Z,30.22
2023-02-11T04:25:37.097Z,30.28
2023-02-11T04:28:05.517Z,30.33
2023-02-11T04:30:33.856Z,30.39
2023-02-11T04:33:02.181Z,30.44
2023-02-11T04:35:30.524Z,30.48
2023-02-11T04:37:58.923Z,30.56
2023-02-11T04:40:27.222Z,30.60
2023-02-11T04:42:55.647Z,30.63
2023-02-11T04:45:24.011Z,30.68
2023-02-11T04:47:52.634Z,30.71
2023-02-11T04:50:21.048Z,30.78
2023-02-11T04:52:49.352Z,30.83
2023-02-11T04:55:17.725Z,30.88
2023-02-11T04:57:45.989Z,30.94
2023-02-11T05:00:14.873Z,30.99
2023-02-11T05:02:43.248Z,31.06
2023-02-11T05:05:11.532Z,31.11
2023-02-11T05:07:39.856Z,31.18
2023-02-11T05:10:08.208Z,31.21
2023-02-11T05:12:36.516Z,31.27
2023-02-11T05:15:05.149Z,31.31
2023-02-11T05:17:33.426Z,31.38
2023-02-11T05:20:01.744Z,31.45
2023-02-11T05:22:30.018Z,31.51
2023-02-11T05:24:58.312Z,31.56
2023-02-11T05:27:26.690Z,31.63
2023-02-11T05:29:55.024Z,31.71
2023-02-11T05:32:23.344Z,31.78
2023-02-11T05:34:51.639Z,31.84
2023-02-11T05:37:19.979Z,31.90
2023-02-11T05:39:48.430Z,31.96
2023-02-11T05:42:16.993Z,32.01
2023-02-11T05:44:50.253Z,32.05
2023-02-11T05:47:19.030Z,32.07
2023-02-11T05:49:47.311Z,32.11
2023-02-11T05:52:15.726Z,32.15
2023-02-11T05:54:44.136Z,32.20
2023-02-11T05:57:12.754Z,32.25
2023-02-11T05:59:41.310Z,32.31
2023-02-11T06:02:10.516Z,32.37
2023-02-11T06:04:39.354Z,32.43
2023-02-11T06:07:07.688Z,32.49
2023-02-11T06:09:35.992Z,32.55
2023-02-11T06:12:04.353Z,32.59
2023-02-11T06:14:35.129Z,32.63
2023-02-11T06:17:03.494Z,32.63
2023-02-11T06:19:32.205Z,32.64
2023-02-11T06:22:00.622Z,32.59
2023-02-11T06:24:54.669Z,32.57
2023-02-11T06:27:18.360Z,32.55
2023-02-11T06:29:47.466Z,32.56
2023-02-11T06:32:37.007Z,32.59
2023-02-11T06:35:04.208Z,32.64
2023-02-11T06:37:32.754Z,32.65
2023-02-11T06:40:01.081Z,32.64
2023-02-11T06:42:29.383Z,32.64
2023-02-11T06:44:57.837Z,32.65
2023-02-11T06:47:26.145Z,32.69
2023-02-11T06:49:54.468Z,32.76
2023-02-11T06:52:22.830Z,32.84
2023-02-11T06:54:51.146Z,32.92
2023-02-11T06:57:19.554Z,33.01
2023-02-11T06:59:47.863Z,33.10
2023-02-11T07:02:17.924Z,33.18
2023-02-11T07:04:47.438Z,33.23
2023-02-11T07:07:15.761Z,33.26
2023-02-11T07:09:44.098Z,33.31
2023-02-11T07:12:13.176Z,33.34
2023-02-11T07:14:42.336Z,33.38
2023-02-11T07:17:10.630Z,33.47
2023-02-11T07:19:38.938Z,33.54
2023-02-11T07:22:07.227Z,33.56
2023-02-11T07:24:35.543Z,33.63
2023-02-11T07:27:03.858Z,33.65
2023-02-11T07:29:32.205Z,33.69
2023-02-11T07:32:00.697Z,33.71
2023-02-11T07:34:29.132Z,33.70
2023-02-11T07:36:57.493Z,33.74
2023-02-11T07:39:28.256Z,33.70
2023-02-11T07:41:56.640Z,33.63
2023-02-11T07:44:25.167Z,33.63
2023-02-11T07:46:53.964Z,33.64
2023-02-11T07:49:22.360Z,33.63
2023-02-11T07:51:52.200Z,33.61
2023-02-11T07:54:20.511Z,33.60
2023-02-11T07:56:48.843Z,33.60
2023-02-11T07:59:23.157Z,33.61
2023-02-11T08:02:06.823Z,33.61
2023-02-11T08:04:35.271Z,33.61
2023-02-11T08:07:03.546Z,33.61
2023-02-11T08:09:34.345Z,33.60
2023-02-11T08:12:02.993Z,33.63
2023-02-11T08:14:33.679Z,33.64
2023-02-11T08:17:02.117Z,33.64
2023-02-11T08:19:30.450Z,33.63
2023-02-11T08:22:00.694Z,33.65
2023-02-11T08:24:29.078Z,33.63
2023-02-11T08:27:00.480Z,33.62
2023-02-11T08:32:12.341Z,33.56
2023-02-11T08:34:40.733Z,33.54
2023-02-11T08:37:09.948Z,33.53
2023-02-11T08:39:38.271Z,33.49
2023-02-11T08:42:06.639Z,33.46
2023-02-11T08:44:34.950Z,33.41
2023-02-11T08:47:03.215Z,33.38
2023-02-11T08:49:32.475Z,33.38
2023-02-11T08:52:04.808Z,33.35
2023-02-11T08:54:33.422Z,33.35
2023-02-11T08:57:02.898Z,33.32
2023-02-11T08:59:31.913Z,33.30
2023-02-11T09:02:00.258Z,33.27
2023-02-11T09:04:28.600Z,33.25
2023-02-11T09:06:56.902Z,33.21
2023-02-11T09:09:25.277Z,33.15
2023-02-11T09:11:58.088Z,33.13
2023-02-11T09:14:26.413Z,33.06
2023-02-11T09:16:55.351Z,33.05
2023-02-11T09:19:24.132Z,32.99
2023-02-11T09:21:52.603Z,32.95
2023-02-11T09:24:20.980Z,32.95
2023-02-11T09:26:50.505Z,32.91
2023-02-11T09:29:18.817Z,32.87
2023-02-11T09:31:47.584Z,32.85
2023-02-11T09:34:16.865Z,32.83
2023-02-11T09:36:45.329Z,32.79
2023-02-11T09:39:20.576Z,32.74
2023-02-11T09:42:03.757Z,32.72
2023-02-11T09:44:37.483Z,32.67
2023-02-11T09:47:16.900Z,32.64
2023-02-11T09:50:16.304Z,32.57
2023-02-11T09:53:02.890Z,32.54
2023-02-11T09:55:58.589Z,32.47
2023-02-11T09:58:29.484Z,32.40
2023-02-11T10:01:09.867Z,32.35
2023-02-11T10:03:53.476Z,32.28
2023-02-11T10:06:46.551Z,32.23
2023-02-11T10:09:17.924Z,32.18
2023-02-11T10:11:58.119Z,32.13
2023-02-11T10:15:00.400Z,32.07
2023-02-11T10:18:03.179Z,32.04
2023-02-11T10:21:02.287Z,32.00
2023-02-11T10:23:38.847Z,31.92
2023-02-11T10:26:15.022Z,31.88
2023-02-11T10:28:47.243Z,31.83
2023-02-11T10:31:21.778Z,31.79
2023-02-11T10:34:01.934Z,31.73
2023-02-11T10:36:36.947Z,31.66
2023-02-11T10:39:15.688Z,31.62
2023-02-11T10:41:53.564Z,31.57
2023-02-11T10:45:04.963Z,31.49
2023-02-11T10:47:39.640Z,31.42
2023-02-11T10:50:27.065Z,31.36
2023-02-11T10:53:12.492Z,31.30
2023-02-11T10:55:49.955Z,31.24
2023-02-11T10:58:48.835Z,31.18
2023-02-11T11:01:24.435Z,31.12
2023-02-11T11:03:54.429Z,31.03
2023-02-11T11:06:36.299Z,30.94
2023-02-11T11:09:05.700Z,30.85
2023-02-11T11:11:33.993Z,30.77
2023-02-11T11:14:04.180Z,30.69
2023-02-11T11:16:37.213Z,30.64
2023-02-11T11:19:08.331Z,30.58
2023-02-11T11:21:45.531Z,30.52
2023-02-11T11:24:21.956Z,30.45
2023-02-11T11:26:56.350Z,30.41
2023-02-11T11:29:29.663Z,30.36
2023-02-11T11:32:14.008Z,30.32
2023-02-11T11:34:49.609Z,30.26
2023-02-11T11:37:32.924Z,30.19
2023-02-11T11:40:10.104Z,30.12
2023-02-11T11:42:40.840Z,30.09
2023-02-11T11:45:33.935Z,30.04
2023-02-11T11:48:11.124Z,29.99
2023-02-11T11:50:54.548Z,29.93
2023-02-11T11:53:47.143Z,29.87
2023-02-11T11:56:44.080Z,29.79
2023-02-11T11:59:17.359Z,29.72
2023-02-11T12:02:03.260Z,29.66
2023-02-11T12:04:49.751Z,29.59
2023-02-11T12:07:39.870Z,29.52
2023-02-11T12:10:43.163Z,29.48
2023-02-11T12:13:33.037Z,29.43
2023-02-11T12:16:19.879Z,29.39
2023-02-11T12:19:15.848Z,29.35
2023-02-11T12:22:10.818Z,29.30
2023-02-11T12:24:47.537Z,29.24
2023-02-11T12:27:24.917Z,29.22
2023-02-11T12:30:17.514Z,29.18
2023-02-11T12:33:00.511Z,29.11
2023-02-11T12:35:55.871Z,29.07
2023-02-11T12:39:08.676Z,29.03
2023-02-11T12:42:33.348Z,28.98
2023-02-11T12:45:13.736Z,28.93
2023-02-11T12:48:09.433Z,28.90
2023-02-11T12:51:01.016Z,28.86
2023-02-11T12:53:47.550Z,28.82
2023-02-11T12:56:21.614Z,28.79
2023-02-11T12:58:54.444Z,28.75
2023-02-11T13:01:26.038Z,28.71
2023-02-11T13:04:44.846Z,28.68
2023-02-11T13:07:38.114Z,28.61
2023-02-11T13:10:27.079Z,28.57
2023-02-11T13:13:16.375Z,28.53
2023-02-11T13:15:50.409Z,28.48
2023-02-11T13:18:45.014Z,28.43
2023-02-11T13:21:16.477Z,28.38
2023-02-11T13:24:07.609Z,28.33
2023-02-11T13:26:43.363Z,28.27
2023-02-11T13:29:33.618Z,28.21
2023-02-11T13:32:12.182Z,28.16
2023-02-11T13:34:43.598Z,28.10
2023-02-11T13:37:28.503Z,28.04
2023-02-11T13:40:20.946Z,28.00
2023-02-11T13:42:53.816Z,27.96
2023-02-11T13:45:34.644Z,27.93
2023-02-11T13:48:09.296Z,27.90
2023-02-11T13:50:49.779Z,27.88
2023-02-11T13:53:19.583Z,27.86
2023-02-11T13:58:32.713Z,27.82
2023-02-11T14:01:01.074Z,27.80
2023-02-11T14:03:50.780Z,27.79
2023-02-11T14:06:40.655Z,27.79
2023-02-11T14:09:36.607Z,27.78
2023-02-11T14:12:32.244Z,27.78
2023-02-11T14:15:22.648Z,27.75
2023-02-11T14:17:51.066Z,27.73
2023-02-11T14:20:44.014Z,27.71
2023-02-11T14:23:26.631Z,27.66
2023-02-11T14:26:21.057Z,27.64
2023-02-11T14:29:15.097Z,27.59
2023-02-11T14:31:45.849Z,27.56
2023-02-11T14:34:37.544Z,27.53
2023-02-11T14:37:18.234Z,27.49
2023-02-11T14:40:31.318Z,27.46
2023-02-11T14:43:07.507Z,27.43
2023-02-11T14:45:38.122Z,27.40
2023-02-11T14:48:16.056Z,27.36
2023-02-11T14:50:50.003Z,27.34
2023-02-11T14:53:26.819Z,27.31
2023-02-11T14:55:56.825Z,27.30
2023-02-11T14:58:31.062Z,27.28
2023-02-11T15:01:09.991Z,27.26
2023-02-11T15:03:41.738Z,27.23
2023-02-11T15:06:35.396Z,27.19
2023-02-11T15:09:30.320Z,27.16
2023-02-11T15:11:59.861Z,27.13
2023-02-11T15:14:34.403Z,27.12
2023-02-11T15:17:05.836Z,27.09
2023-02-11T15:19:36.876Z,27.07
2023-02-11T15:22:23.054Z,27.06
2023-02-11T15:25:15.858Z,27.03
2023-02-11T15:27:46.538Z,27.02
2023-02-11T15:30:24.115Z,27.00
2023-02-11T15:33:01.133Z,26.98
2023-02-11T15:35:33.490Z,26.98
2023-02-11T15:38:02.401Z,26.96
2023-02-11T15:40:34.351Z,26.93
2023-02-11T15:43:08.572Z,26.90
2023-02-11T15:46:01.715Z,26.85
2023-02-11T15:48:42.728Z,26.82
2023-02-11T15:51:24.046Z,26.79
2023-02-11T15:53:57.983Z,26.78
2023-02-11T15:56:26.501Z,26.76
2023-02-11T15:59:00.816Z,26.76
2023-02-11T16:01:33.871Z,26.74
2023-02-11T16:04:03.852Z,26.73
2023-02-11T16:06:43.305Z,26.71
2023-02-11T16:09:12.054Z,26.70
2023-02-11T16:11:49.260Z,26.68
2023-02-11T16:14:28.885Z,26.66
2023-02-11T16:16:57.119Z,26.62
2023-02-11T16:19:28.307Z,26.59
2023-02-11T16:21:58.753Z,26.58
2023-02-11T16:24:34.621Z,26.57
2023-02-11T16:27:05.825Z,26.56
2023-02-11T16:29:37.876Z,26.58
2023-02-11T16:32:27.097Z,26.57
2023-02-11T16:34:58.827Z,26.59
2023-02-11T16:37:27.378Z,26.59
2023-02-11T16:39:59.161Z,26.59
2023-02-11T16:42:27.527Z,26.59
2023-02-11T16:44:55.992Z,26.59
2023-02-11T16:47:29.819Z,26.59
2023-02-11T16:50:00.208Z,26.59
2023-02-11T16:52:28.836Z,26.59
2023-02-11T16:54:57.120Z,26.58
2023-02-11T16:57:29.886Z,26.57
2023-02-11T17:00:00.106Z,26.55
2023-02-11T17:02:31.589Z,26.52
2023-02-11T17:05:02.704Z,26.49
2023-02-11T17:07:31.613Z,26.47
2023-02-11T17:10:00.213Z,26.45
2023-02-11T17:12:28.626Z,26.43
2023-02-11T17:14:56.903Z,26.40
2023-02-11T17:17:25.267Z,26.38
2023-02-11T17:19:53.539Z,26.35
2023-02-11T17:22:21.867Z,26.34
2023-02-11T17:24:50.446Z,26.29
2023-02-11T17:27:18.751Z,26.27
2023-02-11T17:29:47.050Z,26.26
2023-02-11T17:32:15.389Z,26.23
2023-02-11T17:34:43.775Z,26.19
2023-02-11T17:37:12.040Z,26.17
2023-02-11T17:39:41.366Z,26.15
2023-02-11T17:42:09.896Z,26.13
2023-02-11T17:44:38.703Z,26.11
2023-02-11T17:47:07.072Z,26.10
2023-02-11T17:49:35.386Z,26.07
2023-02-11T17:52:03.863Z,26.06
2023-02-11T17:54:32.178Z,26.05
2023-02-11T17:57:00.475Z,26.03
2023-02-11T17:59:32.582Z,26.01
2023-02-11T18:02:01.075Z,25.99
2023-02-11T18:04:29.546Z,25.98
2023-02-11T18:06:58.681Z,25.96
2023-02-11T18:09:27.581Z,25.95
2023-02-11T18:11:56.512Z,25.94
2023-02-11T18:14:25.124Z,25.93
2023-02-11T18:16:54.729Z,25.94
2023-02-11T18:19:24.074Z,25.94
2023-02-11T18:21:52.587Z,25.97
2023-02-11T18:24:20.932Z,25.97
2023-02-11T18:26:49.184Z,25.97
2023-02-11T18:29:17.484Z,25.97
2023-02-11T18:31:45.806Z,25.99
2023-02-11T18:34:14.279Z,25.97
2023-02-11T18:36:42.574Z,25.97
2023-02-11T18:39:10.892Z,25.95
2023-02-11T18:41:40.973Z,25.93
2023-02-11T18:44:09.371Z,25.92
2023-02-11T18:46:37.713Z,25.90
2023-02-11T18:49:06.007Z,25.88
2023-02-11T18:51:34.315Z,25.87
2023-02-11T18:54:02.666Z,25.86
2023-02-11T18:56:31.009Z,25.85
2023-02-11T18:59:02.015Z,25.83
2023-02-11T19:01:32.122Z,25.80
2023-02-11T19:04:05.991Z,25.77
2023-02-11T19:06:38.879Z,25.73
2023-02-11T19:09:11.246Z,25.70
2023-02-11T19:11:55.117Z,25.64
2023-02-11T19:14:26.808Z,25.63
2023-02-11T19:16:58.461Z,25.60
2023-02-11T19:19:29.565Z,25.56
2023-02-11T19:21:59.379Z,25.52
2023-02-11T19:24:29.085Z,25.51
2023-02-11T19:27:00.037Z,25.48
2023-02-11T19:29:29.500Z,25.47
2023-02-11T19:31:57.934Z,25.44
2023-02-11T19:34:26.657Z,25.42
2023-02-11T19:36:55.341Z,25.40
2023-02-11T19:39:25.713Z,25.38
2023-02-11T19:41:54.637Z,25.38
2023-02-11T19:44:22.927Z,25.34
2023-02-11T19:46:53.736Z,25.31
2023-02-11T19:49:27.242Z,25.30
2023-02-11T19:51:58.368Z,25.28
2023-02-11T19:54:29.955Z,25.26
2023-02-11T19:56:59.777Z,25.27
2023-02-11T19:59:28.118Z,25.25
2023-02-11T20:01:56.605Z,25.23
2023-02-11T20:04:26.042Z,25.22
2023-02-11T20:06:54.326Z,25.22
2023-02-11T20:09:23.681Z,25.19
2023-02-11T20:11:51.987Z,25.20
2023-02-11T20:14:20.367Z,25.20
2023-02-11T20:16:50.019Z,25.20
2023-02-11T20:19:22.237Z,25.21
2023-02-11T20:21:53.724Z,25.21
2023-02-11T20:24:22.796Z,25.20
2023-02-11T20:26:52.780Z,25.18
2023-02-11T20:29:21.536Z,25.17
2023-02-11T20:31:51.336Z,25.17
2023-02-11T20:34:19.939Z,25.15
2023-02-11T20:36:52.547Z,25.16
2023-02-11T20:39:23.156Z,25.14
2023-02-11T20:41:53.278Z,25.13
2023-02-11T20:44:25.046Z,25.10
2023-02-11T20:46:54.973Z,25.08
2023-02-11T20:49:25.938Z,25.06
2023-02-11T20:51:54.676Z,25.05
2023-02-11T20:54:24.440Z,25.03
2023-02-11T20:56:54.559Z,25.02
2023-02-11T20:59:23.623Z,25.00
2023-02-11T21:01:56.093Z,25.00
2023-02-11T21:04:27.734Z,24.98
2023-02-11T21:06:59.704Z,24.98
2023-02-11T21:09:32.543Z,24.95
2023-02-11T21:12:01.737Z,24.95
2023-02-11T21:14:30.924Z,24.95
2023-02-11T21:16:59.577Z,24.93
2023-02-11T21:19:28.187Z,24.92
2023-02-11T21:21:58.181Z,24.92
2023-02-11T21:24:26.561Z,24.89
2023-02-11T21:26:54.982Z,24.89
2023-02-11T21:29:23.641Z,24.88
2023-02-11T21:31:52.492Z,24.85
2023-02-11T21:34:21.639Z,24.84
2023-02-11T21:36:52.013Z,24.82
2023-02-11T21:39:21.193Z,24.81
2023-02-11T21:41:49.682Z,24.79
2023-02-11T21:44:17.968Z,24.79
2023-02-11T21:46:47.095Z,24.77
2023-02-11T21:49:15.478Z,24.77
2023-02-11T21:51:43.822Z,24.77
2023-02-11T21:54:12.839Z,24.77
2023-02-11T21:56:41.590Z,24.76
2023-02-11T21:59:15.033Z,24.75
2023-02-11T22:01:43.355Z,24.74
2023-02-11T22:04:11.739Z,24.73
2023-02-11T22:06:40.766Z,24.72
2023-02-11T22:09:11.986Z,24.72
2023-02-11T22:11:40.779Z,24.68
2023-02-11T22:14:09.305Z,24.68
2023-02-11T22:16:37.869Z,24.67
2023-02-11T22:19:08.324Z,24.67
2023-02-11T22:21:36.918Z,24.64
2023-02-11T22:24:05.426Z,24.63
2023-02-11T22:26:34.095Z,24.63
2023-02-11T22:29:02.442Z,24.62
2023-02-11T22:31:33.816Z,24.58
2023-02-11T22:34:03.327Z,24.58
2023-02-11T22:36:34.641Z,24.58
2023-02-11T22:39:11.949Z,24.56
2023-02-11T22:41:42.663Z,24.55
2023-02-11T22:44:11.968Z,24.53
2023-02-11T22:46:41.174Z,24.51
2023-02-11T22:49:10.057Z,24.52
2023-02-11T22:51:40.309Z,24.51
2023-02-11T22:54:14.286Z,24.51
2023-02-11T22:56:43.177Z,24.51
2023-02-11T22:59:16.322Z,24.52
2023-02-11T23:01:45.643Z,24.51
2023-02-11T23:04:16.615Z,24.50
2023-02-11T23:06:45.060Z,24.49
2023-02-11T23:09:13.356Z,24.48
2023-02-11T23:11:42.468Z,24.47
2023-02-11T23:14:12.971Z,24.45
2023-02-11T23:16:41.434Z,24.43
2023-02-11T23:19:10.453Z,24.42
2023-02-11T23:21:40.133Z,24.41
2023-02-11T23:24:12.593Z,24.39
2023-02-11T23:26:42.607Z,24.36
2023-02-11T23:29:11.953Z,24.33
2023-02-11T23:31:44.286Z,24.32
2023-02-11T23:34:12.832Z,24.30
2023-02-11T23:36:41.130Z,24.28
2023-02-11T23:39:09.419Z,24.27
2023-02-11T23:44:05.762Z,24.27
2023-02-11T23:46:34.074Z,24.26
2023-02-11T23:49:02.397Z,24.25
2023-02-11T23:51:30.726Z,24.24
2023-02-11T23:53:59.072Z,24.22
2023-02-11T23:56:29.237Z,24.23
2023-02-11T23:58:59.589Z,24.23
